sensor_id;sensor_type;location;lat;lon;timestamp;temperature;humidity
2202;DHT22;1107;48.654;9.250;2022-08-19T00:01:23;20.70;1.00
2202;DHT22;1107;48.654;9.250;2022-08-19T00:03:50;20.70;42.60
2202;DHT22;1107;48.654;9.250;2022-08-19T00:06:17;20.70;1.00
2202;DHT22;1107;48.654;9.250;2022-08-19T00:08:45;20.70;99.90
2202;DHT22;1107;48.654;9.250;2022-08-19T00:11:13;20.60;15.80
2202;DHT22;1107;48.654;9.250;2022-08-19T00:13:40;20.60;1.00
2202;DHT22;1107;48.654;9.250;2022-08-19T00:16:07;20.60;1.00
2202;DHT22;1107;48.654;9.250;2022-08-19T00:18:34;20.60;1.00
2202;DHT22;1107;48.654;9.250;2022-08-19T00:21:02;20.60;1.00
2202;DHT22;1107;48.654;9.250;2022-08-19T00:23:33;20.50;99.90
2202;DHT22;1107;48.654;9.250;2022-08-19T00:26:03;20.50;1.00
2202;DHT22;1107;48.654;9.250;2022-08-19T00:28:30;20.40;99.90
2202;DHT22;1107;48.654;9.250;2022-08-19T00:30:57;20.40;75.80
2202;DHT22;1107;48.654;9.250;2022-08-19T00:33:24;20.30;1.00
2202;DHT22;1107;48.654;9.250;2022-08-19T00:35:51;20.20;1.00
2202;DHT22;1107;48.654;9.250;2022-08-19T00:38:18;20.10;99.90
2202;DHT22;1107;48.654;9.250;2022-08-19T00:40:48;20.10;1.00
2202;DHT22;1107;48.654;9.250;2022-08-19T00:43:29;20.00;1.00
2202;DHT22;1107;48.654;9.250;2022-08-19T00:45:56;19.90;1.00
2202;DHT22;1107;48.654;9.250;2022-08-19T00:48:23;19.90;1.00
2202;DHT22;1107;48.654;9.250;2022-08-19T00:50:52;20.00;99.90
2202;DHT22;1107;48.654;9.250;2022-08-19T00:53:24;20.00;1.00
2202;DHT22;1107;48.654;9.250;2022-08-19T00:55:54;20.00;41.50
2202;DHT22;1107;48.654;9.250;2022-08-19T00:58:26;20.00;99.90
2202;DHT22;1107;48.654;9.250;2022-08-19T01:00:55;20.00;1.00
2202;DHT22;1107;48.654;9.250;2022-08-19T01:03:22;20.00;1.00
2202;DHT22;1107;48.654;9.250;2022-08-19T01:05:51;20.00;1.00
2202;DHT22;1107;48.654;9.250;2022-08-19T01:08:19;19.90;1.00
2202;DHT22;1107;48.654;9.250;2022-08-19T01:10:49;19.90;1.00
2202;DHT22;1107;48.654;9.250;2022-08-19T01:13:20;19.90;1.00
2202;DHT22;1107;48.654;9.250;2022-08-19T01:15:54;19.80;1.00
2202;DHT22;1107;48.654;9.250;2022-08-19T01:18:23;19.70;3.30
2202;DHT22;1107;48.654;9.250;2022-08-19T01:20:52;19.70;1.00
2202;DHT22;1107;48.654;9.250;2022-08-19T01:23:22;19.60;1.00
2202;DHT22;1107;48.654;9.250;2022-08-19T01:26:09;19.60;1.00
2202;DHT22;1107;48.654;9.250;2022-08-19T01:28:37;19.60;1.00
2202;DHT22;1107;48.654;9.250;2022-08-19T01:31:04;19.50;1.00
2202;DHT22;1107;48.654;9.250;2022-08-19T01:33:31;19.50;99.90
2202;DHT22;1107;48.654;9.250;2022-08-19T01:36:05;19.50;1.00
2202;DHT22;1107;48.654;9.250;2022-08-19T01:38:37;19.50;93.80
2202;DHT22;1107;48.654;9.250;2022-08-19T01:41:05;19.50;1.00
2202;DHT22;1107;48.654;9.250;2022-08-19T01:43:32;19.50;1.00
2202;DHT22;1107;48.654;9.250;2022-08-19T01:45:59;19.50;1.00
2202;DHT22;1107;48.654;9.250;2022-08-19T01:48:33;19.50;1.00
2202;DHT22;1107;48.654;9.250;2022-08-19T01:51:00;19.50;1.00
2202;DHT22;1107;48.654;9.250;2022-08-19T01:53:28;19.60;99.90
2202;DHT22;1107;48.654;9.250;2022-08-19T01:55:57;19.60;1.00
2202;DHT22;1107;48.654;9.250;2022-08-19T01:58:27;19.60;1.00
2202;DHT22;1107;48.654;9.250;2022-08-19T02:00:56;19.60;1.00
2202;DHT22;1107;48.654;9.250;2022-08-19T02:03:23;19.60;1.00
2202;DHT22;1107;48.654;9.250;2022-08-19T02:05:54;19.60;44.90
2202;DHT22;1107;48.654;9.250;2022-08-19T02:08:21;19.60;5.60
2202;DHT22;1107;48.654;9.250;2022-08-19T02:10:48;19.60;99.90
2202;DHT22;1107;48.654;9.250;2022-08-19T02:13:18;19.60;1.00
2202;DHT22;1107;48.654;9.250;2022-08-19T02:15:45;19.60;1.00
2202;DHT22;1107;48.654;9.250;2022-08-19T02:18:12;19.50;1.00
2202;DHT22;1107;48.654;9.250;2022-08-19T02:20:41;19.50;99.90
2202;DHT22;1107;48.654;9.250;2022-08-19T02:23:10;19.50;96.00
2202;DHT22;1107;48.654;9.250;2022-08-19T02:25:38;19.50;1.00
2202;DHT22;1107;48.654;9.250;2022-08-19T02:28:05;19.50;99.90
2202;DHT22;1107;48.654;9.250;2022-08-19T02:30:34;19.40;29.30
2202;DHT22;1107;48.654;9.250;2022-08-19T02:33:01;19.40;1.00
2202;DHT22;1107;48.654;9.250;2022-08-19T02:35:28;19.40;99.90
2202;DHT22;1107;48.654;9.250;2022-08-19T02:37:55;19.30;99.90
2202;DHT22;1107;48.654;9.250;2022-08-19T02:40:39;19.30;90.30
2202;DHT22;1107;48.654;9.250;2022-08-19T02:43:08;19.30;99.90
2202;DHT22;1107;48.654;9.250;2022-08-19T02:45:38;19.30;22.60
2202;DHT22;1107;48.654;9.250;2022-08-19T02:48:05;19.30;99.90
2202;DHT22;1107;48.654;9.250;2022-08-19T02:50:37;19.30;40.70
2202;DHT22;1107;48.654;9.250;2022-08-19T02:53:04;19.20;99.90
2202;DHT22;1107;48.654;9.250;2022-08-19T02:55:32;19.20;99.90
2202;DHT22;1107;48.654;9.250;2022-08-19T02:58:00;19.20;99.90
2202;DHT22;1107;48.654;9.250;2022-08-19T03:00:27;19.20;99.90
2202;DHT22;1107;48.654;9.250;2022-08-19T03:02:55;19.20;99.90
2202;DHT22;1107;48.654;9.250;2022-08-19T03:05:22;19.20;99.90
2202;DHT22;1107;48.654;9.250;2022-08-19T03:07:49;19.20;1.00
2202;DHT22;1107;48.654;9.250;2022-08-19T03:10:16;19.20;1.00
2202;DHT22;1107;48.654;9.250;2022-08-19T03:12:44;19.20;99.90
2202;DHT22;1107;48.654;9.250;2022-08-19T03:15:12;19.20;99.90
2202;DHT22;1107;48.654;9.250;2022-08-19T03:17:39;19.20;99.90
2202;DHT22;1107;48.654;9.250;2022-08-19T03:20:08;19.20;1.00
2202;DHT22;1107;48.654;9.250;2022-08-19T03:22:35;19.20;99.90
2202;DHT22;1107;48.654;9.250;2022-08-19T03:25:03;19.30;1.00
2202;DHT22;1107;48.654;9.250;2022-08-19T03:27:30;19.30;1.00
2202;DHT22;1107;48.654;9.250;2022-08-19T03:29:57;19.20;1.00
2202;DHT22;1107;48.654;9.250;2022-08-19T03:32:24;19.30;99.90
2202;DHT22;1107;48.654;9.250;2022-08-19T03:34:51;19.30;1.00
2202;DHT22;1107;48.654;9.250;2022-08-19T03:37:20;19.20;1.00
2202;DHT22;1107;48.654;9.250;2022-08-19T03:39:48;19.30;1.00
2202;DHT22;1107;48.654;9.250;2022-08-19T03:42:15;19.30;1.00
2202;DHT22;1107;48.654;9.250;2022-08-19T03:44:42;19.30;1.00
2202;DHT22;1107;48.654;9.250;2022-08-19T03:47:10;19.20;1.00
2202;DHT22;1107;48.654;9.250;2022-08-19T03:49:41;19.20;1.00
2202;DHT22;1107;48.654;9.250;2022-08-19T03:52:08;19.20;27.20
2202;DHT22;1107;48.654;9.250;2022-08-19T03:54:37;19.20;99.90
2202;DHT22;1107;48.654;9.250;2022-08-19T03:57:04;19.20;1.00
2202;DHT22;1107;48.654;9.250;2022-08-19T03:59:34;19.20;1.00
2202;DHT22;1107;48.654;9.250;2022-08-19T04:02:05;19.20;1.00
2202;DHT22;1107;48.654;9.250;2022-08-19T04:04:34;19.20;1.00
2202;DHT22;1107;48.654;9.250;2022-08-19T04:07:01;19.20;1.00
2202;DHT22;1107;48.654;9.250;2022-08-19T04:09:28;19.20;1.00
2202;DHT22;1107;48.654;9.250;2022-08-19T04:11:57;19.20;99.90
2202;DHT22;1107;48.654;9.250;2022-08-19T04:14:26;19.20;1.00
2202;DHT22;1107;48.654;9.250;2022-08-19T04:16:55;19.20;1.00
2202;DHT22;1107;48.654;9.250;2022-08-19T04:19:23;19.10;1.00
2202;DHT22;1107;48.654;9.250;2022-08-19T04:21:52;19.10;1.00
2202;DHT22;1107;48.654;9.250;2022-08-19T04:24:20;19.10;1.00
2202;DHT22;1107;48.654;9.250;2022-08-19T04:26:48;19.10;99.90
2202;DHT22;1107;48.654;9.250;2022-08-19T04:29:18;19.00;1.00
2202;DHT22;1107;48.654;9.250;2022-08-19T04:31:48;19.00;1.00
2202;DHT22;1107;48.654;9.250;2022-08-19T04:34:17;19.00;1.00
2202;DHT22;1107;48.654;9.250;2022-08-19T04:36:48;19.10;1.00
2202;DHT22;1107;48.654;9.250;2022-08-19T04:39:19;19.00;1.00
2202;DHT22;1107;48.654;9.250;2022-08-19T04:41:46;19.10;1.00
2202;DHT22;1107;48.654;9.250;2022-08-19T04:44:33;19.00;1.00
2202;DHT22;1107;48.654;9.250;2022-08-19T04:47:00;19.00;99.90
2202;DHT22;1107;48.654;9.250;2022-08-19T04:49:29;19.00;99.90
2202;DHT22;1107;48.654;9.250;2022-08-19T04:51:56;19.00;1.00
2202;DHT22;1107;48.654;9.250;2022-08-19T04:54:24;19.00;1.00
2202;DHT22;1107;48.654;9.250;2022-08-19T04:56:52;19.00;1.00
2202;DHT22;1107;48.654;9.250;2022-08-19T04:59:20;19.10;99.90
2202;DHT22;1107;48.654;9.250;2022-08-19T05:01:49;19.10;1.00
2202;DHT22;1107;48.654;9.250;2022-08-19T05:04:18;19.10;1.00
2202;DHT22;1107;48.654;9.250;2022-08-19T05:06:46;19.10;1.00
2202;DHT22;1107;48.654;9.250;2022-08-19T05:09:14;19.20;1.00
2202;DHT22;1107;48.654;9.250;2022-08-19T05:11:41;19.20;99.90
2202;DHT22;1107;48.654;9.250;2022-08-19T05:14:10;19.20;99.90
2202;DHT22;1107;48.654;9.250;2022-08-19T05:16:39;19.30;1.00
2202;DHT22;1107;48.654;9.250;2022-08-19T05:19:08;19.30;1.00
2202;DHT22;1107;48.654;9.250;2022-08-19T05:21:52;19.30;1.00
2202;DHT22;1107;48.654;9.250;2022-08-19T05:24:37;19.30;99.90
2202;DHT22;1107;48.654;9.250;2022-08-19T05:27:04;19.30;1.00
2202;DHT22;1107;48.654;9.250;2022-08-19T05:29:33;19.30;99.90
2202;DHT22;1107;48.654;9.250;2022-08-19T05:32:02;19.30;1.00
2202;DHT22;1107;48.654;9.250;2022-08-19T05:34:32;19.40;1.00
2202;DHT22;1107;48.654;9.250;2022-08-19T05:37:00;19.40;1.00
2202;DHT22;1107;48.654;9.250;2022-08-19T05:39:30;19.40;99.90
2202;DHT22;1107;48.654;9.250;2022-08-19T05:41:59;19.40;1.00
2202;DHT22;1107;48.654;9.250;2022-08-19T05:44:28;19.40;1.00
2202;DHT22;1107;48.654;9.250;2022-08-19T05:46:57;19.40;1.00
2202;DHT22;1107;48.654;9.250;2022-08-19T05:49:26;19.40;99.90
2202;DHT22;1107;48.654;9.250;2022-08-19T05:51:55;19.40;99.90
2202;DHT22;1107;48.654;9.250;2022-08-19T05:54:22;19.50;99.90
2202;DHT22;1107;48.654;9.250;2022-08-19T05:56:51;19.50;1.00
2202;DHT22;1107;48.654;9.250;2022-08-19T05:59:19;19.50;1.00
2202;DHT22;1107;48.654;9.250;2022-08-19T06:01:48;19.50;99.90
2202;DHT22;1107;48.654;9.250;2022-08-19T06:04:17;19.50;1.00
2202;DHT22;1107;48.654;9.250;2022-08-19T06:06:45;19.50;41.40
2202;DHT22;1107;48.654;9.250;2022-08-19T06:09:14;19.50;99.90
2202;DHT22;1107;48.654;9.250;2022-08-19T06:11:43;19.40;7.50
2202;DHT22;1107;48.654;9.250;2022-08-19T06:14:13;19.40;1.00
2202;DHT22;1107;48.654;9.250;2022-08-19T06:16:41;19.40;1.00
2202;DHT22;1107;48.654;9.250;2022-08-19T06:19:10;19.40;99.90
2202;DHT22;1107;48.654;9.250;2022-08-19T06:21:39;19.40;99.90
2202;DHT22;1107;48.654;9.250;2022-08-19T06:24:08;19.40;1.00
2202;DHT22;1107;48.654;9.250;2022-08-19T06:26:39;19.40;99.90
2202;DHT22;1107;48.654;9.250;2022-08-19T06:29:09;19.40;99.90
2202;DHT22;1107;48.654;9.250;2022-08-19T06:31:36;19.40;1.00
2202;DHT22;1107;48.654;9.250;2022-08-19T06:34:04;19.40;1.00
2202;DHT22;1107;48.654;9.250;2022-08-19T06:36:35;19.40;1.00
2202;DHT22;1107;48.654;9.250;2022-08-19T06:39:05;19.40;1.00
2202;DHT22;1107;48.654;9.250;2022-08-19T06:41:35;19.40;1.00
2202;DHT22;1107;48.654;9.250;2022-08-19T06:44:05;19.40;99.90
2202;DHT22;1107;48.654;9.250;2022-08-19T06:46:33;19.40;99.90
2202;DHT22;1107;48.654;9.250;2022-08-19T06:49:00;19.40;1.00
2202;DHT22;1107;48.654;9.250;2022-08-19T06:51:27;19.40;1.00
2202;DHT22;1107;48.654;9.250;2022-08-19T06:53:55;19.40;1.00
2202;DHT22;1107;48.654;9.250;2022-08-19T06:56:24;19.50;99.90
2202;DHT22;1107;48.654;9.250;2022-08-19T06:58:56;19.40;1.00
2202;DHT22;1107;48.654;9.250;2022-08-19T07:01:24;19.40;99.90
2202;DHT22;1107;48.654;9.250;2022-08-19T07:03:51;19.40;99.90
2202;DHT22;1107;48.654;9.250;2022-08-19T07:06:19;19.50;99.90
2202;DHT22;1107;48.654;9.250;2022-08-19T07:08:47;19.50;1.00
2202;DHT22;1107;48.654;9.250;2022-08-19T07:11:16;19.50;28.00
2202;DHT22;1107;48.654;9.250;2022-08-19T07:13:45;19.50;99.90
2202;DHT22;1107;48.654;9.250;2022-08-19T07:16:16;19.50;99.90
2202;DHT22;1107;48.654;9.250;2022-08-19T07:18:47;19.50;99.90
2202;DHT22;1107;48.654;9.250;2022-08-19T07:21:16;19.60;1.00
2202;DHT22;1107;48.654;9.250;2022-08-19T07:23:44;19.60;1.00
2202;DHT22;1107;48.654;9.250;2022-08-19T07:26:19;19.50;1.00
2202;DHT22;1107;48.654;9.250;2022-08-19T07:28:47;19.50;1.00
2202;DHT22;1107;48.654;9.250;2022-08-19T07:31:17;19.60;1.00
2202;DHT22;1107;48.654;9.250;2022-08-19T07:33:47;19.50;1.00
2202;DHT22;1107;48.654;9.250;2022-08-19T07:36:16;19.60;1.00
2202;DHT22;1107;48.654;9.250;2022-08-19T07:38:45;19.50;1.00
2202;DHT22;1107;48.654;9.250;2022-08-19T07:41:15;19.50;1.00
2202;DHT22;1107;48.654;9.250;2022-08-19T07:43:43;19.50;1.00
2202;DHT22;1107;48.654;9.250;2022-08-19T07:46:11;19.50;1.00
2202;DHT22;1107;48.654;9.250;2022-08-19T07:48:39;19.50;1.00
2202;DHT22;1107;48.654;9.250;2022-08-19T07:51:09;19.50;1.00
2202;DHT22;1107;48.654;9.250;2022-08-19T07:53:37;19.50;1.00
2202;DHT22;1107;48.654;9.250;2022-08-19T07:56:04;19.50;1.00
2202;DHT22;1107;48.654;9.250;2022-08-19T07:58:34;19.40;1.00
2202;DHT22;1107;48.654;9.250;2022-08-19T08:01:04;19.40;1.00
2202;DHT22;1107;48.654;9.250;2022-08-19T08:03:31;19.40;1.00
2202;DHT22;1107;48.654;9.250;2022-08-19T08:06:17;19.30;1.00
2202;DHT22;1107;48.654;9.250;2022-08-19T08:09:03;19.30;1.00
2202;DHT22;1107;48.654;9.250;2022-08-19T08:11:49;19.20;1.00
2202;DHT22;1107;48.654;9.250;2022-08-19T08:14:18;19.20;1.00
2202;DHT22;1107;48.654;9.250;2022-08-19T08:16:46;19.20;1.00
2202;DHT22;1107;48.654;9.250;2022-08-19T08:19:14;19.20;1.00
2202;DHT22;1107;48.654;9.250;2022-08-19T08:21:43;19.20;1.00
2202;DHT22;1107;48.654;9.250;2022-08-19T08:24:11;19.10;1.00
2202;DHT22;1107;48.654;9.250;2022-08-19T08:26:38;19.20;1.00
2202;DHT22;1107;48.654;9.250;2022-08-19T08:29:06;19.20;1.00
2202;DHT22;1107;48.654;9.250;2022-08-19T08:31:37;19.30;1.00
2202;DHT22;1107;48.654;9.250;2022-08-19T08:34:04;19.30;1.00
2202;DHT22;1107;48.654;9.250;2022-08-19T08:36:44;19.40;1.00
2202;DHT22;1107;48.654;9.250;2022-08-19T08:39:13;19.50;1.00
2202;DHT22;1107;48.654;9.250;2022-08-19T08:41:46;19.60;1.00
2202;DHT22;1107;48.654;9.250;2022-08-19T08:44:20;19.60;1.00
2202;DHT22;1107;48.654;9.250;2022-08-19T08:46:50;19.60;1.00
2202;DHT22;1107;48.654;9.250;2022-08-19T08:49:28;19.70;1.00
2202;DHT22;1107;48.654;9.250;2022-08-19T08:52:03;19.60;1.00
2202;DHT22;1107;48.654;9.250;2022-08-19T08:54:35;19.50;1.00
2202;DHT22;1107;48.654;9.250;2022-08-19T08:57:05;19.50;1.00
2202;DHT22;1107;48.654;9.250;2022-08-19T08:59:36;19.50;1.00
2202;DHT22;1107;48.654;9.250;2022-08-19T09:02:04;19.60;1.00
2202;DHT22;1107;48.654;9.250;2022-08-19T09:04:31;19.50;1.00
2202;DHT22;1107;48.654;9.250;2022-08-19T09:07:13;19.50;1.00
2202;DHT22;1107;48.654;9.250;2022-08-19T09:09:45;19.60;1.00
2202;DHT22;1107;48.654;9.250;2022-08-19T09:12:19;19.50;1.00
2202;DHT22;1107;48.654;9.250;2022-08-19T09:14:50;19.50;1.00
2202;DHT22;1107;48.654;9.250;2022-08-19T09:17:22;19.50;1.00
2202;DHT22;1107;48.654;9.250;2022-08-19T09:19:58;19.50;1.00
2202;DHT22;1107;48.654;9.250;2022-08-19T09:22:31;19.50;1.00
2202;DHT22;1107;48.654;9.250;2022-08-19T09:24:58;19.60;1.00
2202;DHT22;1107;48.654;9.250;2022-08-19T09:27:27;19.70;1.00
2202;DHT22;1107;48.654;9.250;2022-08-19T09:29:54;19.70;1.00
2202;DHT22;1107;48.654;9.250;2022-08-19T09:32:22;19.70;1.00
2202;DHT22;1107;48.654;9.250;2022-08-19T09:34:50;19.80;1.00
2202;DHT22;1107;48.654;9.250;2022-08-19T09:37:20;19.80;1.00
2202;DHT22;1107;48.654;9.250;2022-08-19T09:39:49;19.90;1.00
2202;DHT22;1107;48.654;9.250;2022-08-19T09:42:16;19.90;1.00
2202;DHT22;1107;48.654;9.250;2022-08-19T09:44:44;19.90;1.00
2202;DHT22;1107;48.654;9.250;2022-08-19T09:47:12;20.00;1.00
2202;DHT22;1107;48.654;9.250;2022-08-19T09:49:40;20.00;1.00
2202;DHT22;1107;48.654;9.250;2022-08-19T09:52:09;20.10;1.00
2202;DHT22;1107;48.654;9.250;2022-08-19T09:54:37;20.10;1.00
2202;DHT22;1107;48.654;9.250;2022-08-19T09:57:06;20.10;1.00
2202;DHT22;1107;48.654;9.250;2022-08-19T09:59:33;20.10;1.00
2202;DHT22;1107;48.654;9.250;2022-08-19T10:02:00;20.10;1.00
2202;DHT22;1107;48.654;9.250;2022-08-19T10:04:27;20.10;1.00
2202;DHT22;1107;48.654;9.250;2022-08-19T10:07:14;20.10;1.00
2202;DHT22;1107;48.654;9.250;2022-08-19T10:09:41;20.00;1.00
2202;DHT22;1107;48.654;9.250;2022-08-19T10:12:10;19.90;1.00
2202;DHT22;1107;48.654;9.250;2022-08-19T10:14:37;19.90;1.00
2202;DHT22;1107;48.654;9.250;2022-08-19T10:17:04;19.90;1.00
2202;DHT22;1107;48.654;9.250;2022-08-19T10:19:31;19.90;1.00
2202;DHT22;1107;48.654;9.250;2022-08-19T10:22:03;20.00;1.00
2202;DHT22;1107;48.654;9.250;2022-08-19T10:24:31;20.00;1.00
2202;DHT22;1107;48.654;9.250;2022-08-19T10:26:59;20.10;1.00
2202;DHT22;1107;48.654;9.250;2022-08-19T10:29:30;20.00;1.00
2202;DHT22;1107;48.654;9.250;2022-08-19T10:32:00;20.00;1.00
2202;DHT22;1107;48.654;9.250;2022-08-19T10:34:28;20.00;1.00
2202;DHT22;1107;48.654;9.250;2022-08-19T10:36:56;20.00;1.00
2202;DHT22;1107;48.654;9.250;2022-08-19T10:39:23;20.10;1.00
2202;DHT22;1107;48.654;9.250;2022-08-19T10:41:50;20.10;1.00
2202;DHT22;1107;48.654;9.250;2022-08-19T10:44:17;20.10;1.00
2202;DHT22;1107;48.654;9.250;2022-08-19T10:46:46;20.10;1.00
2202;DHT22;1107;48.654;9.250;2022-08-19T10:49:13;20.00;1.00
2202;DHT22;1107;48.654;9.250;2022-08-19T10:51:40;19.90;1.00
2202;DHT22;1107;48.654;9.250;2022-08-19T10:54:26;19.80;1.00
2202;DHT22;1107;48.654;9.250;2022-08-19T10:57:14;19.70;1.00
2202;DHT22;1107;48.654;9.250;2022-08-19T10:59:40;19.60;1.00
2202;DHT22;1107;48.654;9.250;2022-08-19T11:02:10;19.60;1.00
2202;DHT22;1107;48.654;9.250;2022-08-19T11:04:38;19.50;3.40
2202;DHT22;1107;48.654;9.250;2022-08-19T11:07:07;19.50;40.80
2202;DHT22;1107;48.654;9.250;2022-08-19T11:09:38;19.50;33.80
2202;DHT22;1107;48.654;9.250;2022-08-19T11:12:06;19.60;35.80
2202;DHT22;1107;48.654;9.250;2022-08-19T11:14:34;19.60;38.80
2202;DHT22;1107;48.654;9.250;2022-08-19T11:17:03;19.50;74.10
2202;DHT22;1107;48.654;9.250;2022-08-19T11:19:32;19.50;99.90
2202;DHT22;1107;48.654;9.250;2022-08-19T11:21:59;19.50;99.90
2202;DHT22;1107;48.654;9.250;2022-08-19T11:24:28;19.50;99.90
2202;DHT22;1107;48.654;9.250;2022-08-19T11:27:02;19.40;99.90
2202;DHT22;1107;48.654;9.250;2022-08-19T11:29:30;19.40;99.90
2202;DHT22;1107;48.654;9.250;2022-08-19T11:31:58;19.30;99.90
2202;DHT22;1107;48.654;9.250;2022-08-19T11:34:27;19.30;99.90
2202;DHT22;1107;48.654;9.250;2022-08-19T11:36:56;19.40;99.90
2202;DHT22;1107;48.654;9.250;2022-08-19T11:39:27;19.50;99.90
2202;DHT22;1107;48.654;9.250;2022-08-19T11:41:55;19.60;99.90
2202;DHT22;1107;48.654;9.250;2022-08-19T11:44:22;19.70;99.90
2202;DHT22;1107;48.654;9.250;2022-08-19T11:46:50;19.60;87.70
2202;DHT22;1107;48.654;9.250;2022-08-19T11:49:19;19.60;88.20
2202;DHT22;1107;48.654;9.250;2022-08-19T11:51:47;19.60;88.40
2202;DHT22;1107;48.654;9.250;2022-08-19T11:54:17;19.60;38.90
2202;DHT22;1107;48.654;9.250;2022-08-19T11:56:44;19.40;51.70
2202;DHT22;1107;48.654;9.250;2022-08-19T11:59:13;19.40;99.90
2202;DHT22;1107;48.654;9.250;2022-08-19T12:01:41;19.20;99.90
2202;DHT22;1107;48.654;9.250;2022-08-19T12:04:09;19.20;99.90
2202;DHT22;1107;48.654;9.250;2022-08-19T12:06:38;19.20;99.90
2202;DHT22;1107;48.654;9.250;2022-08-19T12:09:07;19.20;99.90
2202;DHT22;1107;48.654;9.250;2022-08-19T12:11:37;19.20;99.90
2202;DHT22;1107;48.654;9.250;2022-08-19T12:14:05;19.10;99.90
2202;DHT22;1107;48.654;9.250;2022-08-19T12:16:32;19.10;99.90
2202;DHT22;1107;48.654;9.250;2022-08-19T12:19:00;19.00;99.90
2202;DHT22;1107;48.654;9.250;2022-08-19T12:21:32;19.00;99.90
2202;DHT22;1107;48.654;9.250;2022-08-19T12:24:00;18.90;99.90
2202;DHT22;1107;48.654;9.250;2022-08-19T12:26:28;19.00;99.90
2202;DHT22;1107;48.654;9.250;2022-08-19T12:28:58;19.00;99.90
2202;DHT22;1107;48.654;9.250;2022-08-19T12:31:26;19.00;99.90
2202;DHT22;1107;48.654;9.250;2022-08-19T12:33:53;19.00;99.90
2202;DHT22;1107;48.654;9.250;2022-08-19T12:36:22;19.10;99.90
2202;DHT22;1107;48.654;9.250;2022-08-19T12:38:50;19.20;99.90
2202;DHT22;1107;48.654;9.250;2022-08-19T12:41:18;19.40;99.90
2202;DHT22;1107;48.654;9.250;2022-08-19T12:43:48;19.50;99.90
2202;DHT22;1107;48.654;9.250;2022-08-19T12:46:18;19.50;99.90
2202;DHT22;1107;48.654;9.250;2022-08-19T12:48:45;19.50;99.90
2202;DHT22;1107;48.654;9.250;2022-08-19T12:51:15;19.40;99.90
2202;DHT22;1107;48.654;9.250;2022-08-19T12:53:43;19.30;99.90
2202;DHT22;1107;48.654;9.250;2022-08-19T12:56:11;19.20;99.90
2202;DHT22;1107;48.654;9.250;2022-08-19T12:58:40;19.20;99.90
2202;DHT22;1107;48.654;9.250;2022-08-19T13:01:09;19.20;99.90
2202;DHT22;1107;48.654;9.250;2022-08-19T13:03:38;19.20;99.90
2202;DHT22;1107;48.654;9.250;2022-08-19T13:06:06;19.20;99.90
2202;DHT22;1107;48.654;9.250;2022-08-19T13:08:33;19.20;99.90
2202;DHT22;1107;48.654;9.250;2022-08-19T13:11:08;19.20;99.90
2202;DHT22;1107;48.654;9.250;2022-08-19T13:13:36;19.20;99.90
2202;DHT22;1107;48.654;9.250;2022-08-19T13:16:07;19.10;99.90
2202;DHT22;1107;48.654;9.250;2022-08-19T13:18:34;19.20;99.90
2202;DHT22;1107;48.654;9.250;2022-08-19T13:21:03;19.10;99.90
2202;DHT22;1107;48.654;9.250;2022-08-19T13:23:32;19.10;99.90
2202;DHT22;1107;48.654;9.250;2022-08-19T13:26:01;19.00;99.90
2202;DHT22;1107;48.654;9.250;2022-08-19T13:28:28;19.00;99.90
2202;DHT22;1107;48.654;9.250;2022-08-19T13:31:16;19.00;99.90
2202;DHT22;1107;48.654;9.250;2022-08-19T13:34:06;18.90;99.90
2202;DHT22;1107;48.654;9.250;2022-08-19T13:36:36;19.00;99.90
2202;DHT22;1107;48.654;9.250;2022-08-19T13:39:04;19.00;99.90
2202;DHT22;1107;48.654;9.250;2022-08-19T13:41:32;19.00;99.90
2202;DHT22;1107;48.654;9.250;2022-08-19T13:44:00;19.00;99.90
2202;DHT22;1107;48.654;9.250;2022-08-19T13:46:27;19.00;99.90
2202;DHT22;1107;48.654;9.250;2022-08-19T13:48:55;18.90;99.90
2202;DHT22;1107;48.654;9.250;2022-08-19T13:51:23;19.00;99.90
2202;DHT22;1107;48.654;9.250;2022-08-19T13:53:51;18.90;99.90
2202;DHT22;1107;48.654;9.250;2022-08-19T13:56:19;18.90;99.90
2202;DHT22;1107;48.654;9.250;2022-08-19T13:58:46;18.90;99.90
2202;DHT22;1107;48.654;9.250;2022-08-19T14:01:19;19.00;99.90
2202;DHT22;1107;48.654;9.250;2022-08-19T14:03:47;19.00;99.90
2202;DHT22;1107;48.654;9.250;2022-08-19T14:06:14;19.00;99.90
2202;DHT22;1107;48.654;9.250;2022-08-19T14:08:42;19.00;99.90
2202;DHT22;1107;48.654;9.250;2022-08-19T14:11:10;18.90;99.90
2202;DHT22;1107;48.654;9.250;2022-08-19T14:13:37;18.90;99.90
2202;DHT22;1107;48.654;9.250;2022-08-19T14:16:07;18.80;99.90
2202;DHT22;1107;48.654;9.250;2022-08-19T14:18:35;18.80;99.90
2202;DHT22;1107;48.654;9.250;2022-08-19T14:21:04;18.70;99.90
2202;DHT22;1107;48.654;9.250;2022-08-19T14:23:31;18.60;99.90
2202;DHT22;1107;48.654;9.250;2022-08-19T14:26:06;18.70;99.90
2202;DHT22;1107;48.654;9.250;2022-08-19T14:28:34;18.70;99.90
2202;DHT22;1107;48.654;9.250;2022-08-19T14:31:01;18.70;99.90
2202;DHT22;1107;48.654;9.250;2022-08-19T14:33:28;18.70;99.90
2202;DHT22;1107;48.654;9.250;2022-08-19T14:35:55;18.70;99.90
2202;DHT22;1107;48.654;9.250;2022-08-19T14:38:22;18.70;99.90
2202;DHT22;1107;48.654;9.250;2022-08-19T14:40:49;18.80;99.90
2202;DHT22;1107;48.654;9.250;2022-08-19T14:43:18;18.80;99.90
2202;DHT22;1107;48.654;9.250;2022-08-19T14:45:46;18.80;99.90
2202;DHT22;1107;48.654;9.250;2022-08-19T14:48:13;18.70;99.90
2202;DHT22;1107;48.654;9.250;2022-08-19T14:50:40;18.70;99.90
2202;DHT22;1107;48.654;9.250;2022-08-19T14:53:08;18.70;99.90
2202;DHT22;1107;48.654;9.250;2022-08-19T14:55:35;18.70;99.90
2202;DHT22;1107;48.654;9.250;2022-08-19T14:58:02;18.70;99.90
2202;DHT22;1107;48.654;9.250;2022-08-19T15:00:29;18.80;99.90
2202;DHT22;1107;48.654;9.250;2022-08-19T15:02:57;18.80;99.90
2202;DHT22;1107;48.654;9.250;2022-08-19T15:05:24;18.90;99.90
2202;DHT22;1107;48.654;9.250;2022-08-19T15:07:52;19.00;99.90
2202;DHT22;1107;48.654;9.250;2022-08-19T15:10:22;19.10;99.90
2202;DHT22;1107;48.654;9.250;2022-08-19T15:12:50;19.20;99.90
2202;DHT22;1107;48.654;9.250;2022-08-19T15:15:18;19.30;99.90
2202;DHT22;1107;48.654;9.250;2022-08-19T15:17:45;19.40;99.90
2202;DHT22;1107;48.654;9.250;2022-08-19T15:20:15;19.40;99.90
2202;DHT22;1107;48.654;9.250;2022-08-19T15:22:43;19.40;99.90
2202;DHT22;1107;48.654;9.250;2022-08-19T15:25:12;19.30;99.90
2202;DHT22;1107;48.654;9.250;2022-08-19T15:27:39;19.30;99.90
2202;DHT22;1107;48.654;9.250;2022-08-19T15:30:07;19.30;99.90
2202;DHT22;1107;48.654;9.250;2022-08-19T15:32:35;19.30;99.90
2202;DHT22;1107;48.654;9.250;2022-08-19T15:35:03;19.30;99.90
2202;DHT22;1107;48.654;9.250;2022-08-19T15:37:31;19.30;99.90
2202;DHT22;1107;48.654;9.250;2022-08-19T15:39:58;19.40;99.90
2202;DHT22;1107;48.654;9.250;2022-08-19T15:42:25;19.50;99.90
2202;DHT22;1107;48.654;9.250;2022-08-19T15:44:52;19.60;92.70
2202;DHT22;1107;48.654;9.250;2022-08-19T15:47:19;19.70;21.70
2202;DHT22;1107;48.654;9.250;2022-08-19T15:49:47;19.80;27.40
2202;DHT22;1107;48.654;9.250;2022-08-19T15:52:14;19.80;1.00
2202;DHT22;1107;48.654;9.250;2022-08-19T15:54:42;19.90;14.50
2202;DHT22;1107;48.654;9.250;2022-08-19T15:57:09;19.90;2.10
2202;DHT22;1107;48.654;9.250;2022-08-19T15:59:53;19.90;4.90
2202;DHT22;1107;48.654;9.250;2022-08-19T16:02:38;20.00;7.50
2202;DHT22;1107;48.654;9.250;2022-08-19T16:05:24;20.10;1.00
2202;DHT22;1107;48.654;9.250;2022-08-19T16:08:17;20.10;1.00
2202;DHT22;1107;48.654;9.250;2022-08-19T16:10:46;20.20;1.00
2202;DHT22;1107;48.654;9.250;2022-08-19T16:13:13;20.20;1.00
2202;DHT22;1107;48.654;9.250;2022-08-19T16:15:40;20.30;1.00
2202;DHT22;1107;48.654;9.250;2022-08-19T16:18:07;20.30;1.00
2202;DHT22;1107;48.654;9.250;2022-08-19T16:20:34;20.30;1.00
2202;DHT22;1107;48.654;9.250;2022-08-19T16:23:02;20.30;1.00